sensor_id;sensor_type;location;lat;lon;timestamp;P1;durP1;ratioP1;P2;durP2;ratioP2
43580;SDS011;29175;51.030;4.606;2023-02-24T00:01:12;32.15;;;6.93;;
43580;SDS011;29175;51.030;4.606;2023-02-24T00:06:09;32.67;;;6.38;;
43580;SDS011;29175;51.030;4.606;2023-02-24T00:08:39;27.52;;;6.10;;
43580;SDS011;29175;51.030;4.606;2023-02-24T00:11:12;29.50;;;7.32;;
43580;SDS011;29175;51.030;4.606;2023-02-24T00:13:41;50.65;;;6.55;;
43580;SDS011;29175;51.030;4.606;2023-02-24T00:16:14;31.67;;;6.68;;
43580;SDS011;29175;51.030;4.606;2023-02-24T00:18:41;33.20;;;7.30;;
43580;SDS011;29175;51.030;4.606;2023-02-24T00:21:10;27.75;;;7.05;;
43580;SDS011;29175;51.030;4.606;2023-02-24T00:23:39;30.02;;;6.63;;
43580;SDS011;29175;51.030;4.606;2023-02-24T00:26:06;29.52;;;6.75;;
43580;SDS011;29175;51.030;4.606;2023-02-24T00:28:34;34.83;;;7.05;;
43580;SDS011;29175;51.030;4.606;2023-02-24T00:31:07;25.08;;;6.47;;
43580;SDS011;29175;51.030;4.606;2023-02-24T00:33:38;29.75;;;6.43;;
43580;SDS011;29175;51.030;4.606;2023-02-24T00:36:22;22.85;;;6.47;;
43580;SDS011;29175;51.030;4.606;2023-02-24T00:38:54;39.97;;;7.80;;
43580;SDS011;29175;51.030;4.606;2023-02-24T00:41:22;34.67;;;7.63;;
43580;SDS011;29175;51.030;4.606;2023-02-24T00:43:59;33.35;;;7.70;;
43580;SDS011;29175;51.030;4.606;2023-02-24T00:46:30;32.70;;;7.15;;
43580;SDS011;29175;51.030;4.606;2023-02-24T00:49:00;34.63;;;7.40;;
43580;SDS011;29175;51.030;4.606;2023-02-24T00:51:29;30.50;;;7.18;;
43580;SDS011;29175;51.030;4.606;2023-02-24T00:53:59;33.17;;;7.88;;
43580;SDS011;29175;51.030;4.606;2023-02-24T00:56:26;31.45;;;7.88;;
43580;SDS011;29175;51.030;4.606;2023-02-24T00:58:54;29.60;;;7.43;;
43580;SDS011;29175;51.030;4.606;2023-02-24T01:01:22;28.00;;;7.45;;
43580;SDS011;29175;51.030;4.606;2023-02-24T01:03:51;33.65;;;7.82;;
43580;SDS011;29175;51.030;4.606;2023-02-24T01:08:47;27.42;;;7.45;;
43580;SDS011;29175;51.030;4.606;2023-02-24T01:11:15;34.33;;;7.82;;
43580;SDS011;29175;51.030;4.606;2023-02-24T01:14:08;36.60;;;7.03;;
43580;SDS011;29175;51.030;4.606;2023-02-24T01:16:40;35.08;;;7.82;;
43580;SDS011;29175;51.030;4.606;2023-02-24T01:19:09;34.75;;;7.45;;
43580;SDS011;29175;51.030;4.606;2023-02-24T01:21:35;48.20;;;8.55;;
43580;SDS011;29175;51.030;4.606;2023-02-24T01:24:01;31.45;;;7.80;;
43580;SDS011;29175;51.030;4.606;2023-02-24T01:26:27;31.55;;;7.07;;
43580;SDS011;29175;51.030;4.606;2023-02-24T01:28:54;25.45;;;6.72;;
43580;SDS011;29175;51.030;4.606;2023-02-24T01:31:21;31.52;;;8.30;;
43580;SDS011;29175;51.030;4.606;2023-02-24T01:33:51;39.28;;;7.78;;
43580;SDS011;29175;51.030;4.606;2023-02-24T01:36:18;27.87;;;7.07;;
43580;SDS011;29175;51.030;4.606;2023-02-24T01:38:45;32.35;;;7.10;;
43580;SDS011;29175;51.030;4.606;2023-02-24T01:41:17;28.98;;;7.70;;
43580;SDS011;29175;51.030;4.606;2023-02-24T01:44:00;41.90;;;8.23;;
43580;SDS011;29175;51.030;4.606;2023-02-24T01:46:33;33.92;;;7.18;;
43580;SDS011;29175;51.030;4.606;2023-02-24T01:49:04;37.65;;;7.57;;
43580;SDS011;29175;51.030;4.606;2023-02-24T01:52:01;33.97;;;7.53;;
43580;SDS011;29175;51.030;4.606;2023-02-24T01:54:33;46.00;;;7.55;;
43580;SDS011;29175;51.030;4.606;2023-02-24T01:57:05;46.28;;;7.72;;
43580;SDS011;29175;51.030;4.606;2023-02-24T01:59:33;24.77;;;6.38;;
43580;SDS011;29175;51.030;4.606;2023-02-24T02:02:03;40.65;;;7.38;;
43580;SDS011;29175;51.030;4.606;2023-02-24T02:04:48;27.35;;;7.10;;
43580;SDS011;29175;51.030;4.606;2023-02-24T02:07:19;38.95;;;7.45;;
43580;SDS011;29175;51.030;4.606;2023-02-24T02:09:47;29.33;;;7.67;;
43580;SDS011;29175;51.030;4.606;2023-02-24T02:12:14;29.42;;;8.23;;
43580;SDS011;29175;51.030;4.606;2023-02-24T02:14:42;35.55;;;7.30;;
43580;SDS011;29175;51.030;4.606;2023-02-24T02:23:05;27.48;;;6.88;;
43580;SDS011;29175;51.030;4.606;2023-02-24T02:25:47;35.35;;;7.25;;
43580;SDS011;29175;51.030;4.606;2023-02-24T02:28:27;24.33;;;7.20;;
43580;SDS011;29175;51.030;4.606;2023-02-24T02:33:45;23.17;;;5.68;;
43580;SDS011;29175;51.030;4.606;2023-02-24T02:45:05;25.25;;;6.32;;
43580;SDS011;29175;51.030;4.606;2023-02-24T02:47:51;27.27;;;6.32;;
43580;SDS011;29175;51.030;4.606;2023-02-24T02:52:58;17.20;;;6.05;;
43580;SDS011;29175;51.030;4.606;2023-02-24T02:58:20;31.30;;;6.68;;
43580;SDS011;29175;51.030;4.606;2023-02-24T03:00:54;21.58;;;7.13;;
43580;SDS011;29175;51.030;4.606;2023-02-24T03:03:30;20.05;;;6.07;;
43580;SDS011;29175;51.030;4.606;2023-02-24T03:06:02;25.63;;;6.55;;
43580;SDS011;29175;51.030;4.606;2023-02-24T03:08:30;29.23;;;6.45;;
43580;SDS011;29175;51.030;4.606;2023-02-24T03:11:02;39.72;;;7.43;;
43580;SDS011;29175;51.030;4.606;2023-02-24T03:16:00;24.65;;;5.82;;
43580;SDS011;29175;51.030;4.606;2023-02-24T03:18:31;33.20;;;7.45;;
43580;SDS011;29175;51.030;4.606;2023-02-24T03:21:11;23.17;;;7.00;;
43580;SDS011;29175;51.030;4.606;2023-02-24T03:23:50;27.65;;;7.50;;
43580;SDS011;29175;51.030;4.606;2023-02-24T03:26:19;25.77;;;6.95;;
43580;SDS011;29175;51.030;4.606;2023-02-24T03:37:04;29.73;;;6.95;;
43580;SDS011;29175;51.030;4.606;2023-02-24T03:39:30;33.47;;;7.40;;
43580;SDS011;29175;51.030;4.606;2023-02-24T03:42:01;24.90;;;6.57;;
43580;SDS011;29175;51.030;4.606;2023-02-24T03:44:33;23.58;;;6.60;;
43580;SDS011;29175;51.030;4.606;2023-02-24T03:47:00;21.65;;;6.70;;
43580;SDS011;29175;51.030;4.606;2023-02-24T03:49:30;31.67;;;8.15;;
43580;SDS011;29175;51.030;4.606;2023-02-24T03:52:02;25.73;;;6.20;;
43580;SDS011;29175;51.030;4.606;2023-02-24T03:54:49;28.73;;;6.57;;
43580;SDS011;29175;51.030;4.606;2023-02-24T04:03:47;29.42;;;6.47;;
43580;SDS011;29175;51.030;4.606;2023-02-24T04:09:37;16.88;;;5.47;;
43580;SDS011;29175;51.030;4.606;2023-02-24T04:15:27;20.92;;;5.55;;
43580;SDS011;29175;51.030;4.606;2023-02-24T04:17:55;23.23;;;5.97;;
43580;SDS011;29175;51.030;4.606;2023-02-24T04:20:25;23.92;;;5.68;;
43580;SDS011;29175;51.030;4.606;2023-02-24T04:23:02;30.85;;;6.47;;
43580;SDS011;29175;51.030;4.606;2023-02-24T04:25:35;28.73;;;6.82;;
43580;SDS011;29175;51.030;4.606;2023-02-24T04:28:03;23.73;;;6.50;;
43580;SDS011;29175;51.030;4.606;2023-02-24T04:30:36;10.93;;;4.07;;
43580;SDS011;29175;51.030;4.606;2023-02-24T04:33:05;33.03;;;6.65;;
43580;SDS011;29175;51.030;4.606;2023-02-24T04:35:31;26.67;;;6.57;;
43580;SDS011;29175;51.030;4.606;2023-02-24T04:37:59;21.25;;;5.80;;
43580;SDS011;29175;51.030;4.606;2023-02-24T04:40:25;25.92;;;6.75;;
43580;SDS011;29175;51.030;4.606;2023-02-24T04:42:52;30.27;;;6.50;;
43580;SDS011;29175;51.030;4.606;2023-02-24T04:45:19;25.35;;;6.47;;
43580;SDS011;29175;51.030;4.606;2023-02-24T04:47:47;22.92;;;6.45;;
43580;SDS011;29175;51.030;4.606;2023-02-24T04:50:18;22.02;;;5.03;;
43580;SDS011;29175;51.030;4.606;2023-02-24T04:52:49;22.88;;;6.28;;
43580;SDS011;29175;51.030;4.606;2023-02-24T04:55:16;22.65;;;6.43;;
43580;SDS011;29175;51.030;4.606;2023-02-24T04:57:43;22.10;;;5.55;;
43580;SDS011;29175;51.030;4.606;2023-02-24T05:00:11;26.90;;;6.32;;
43580;SDS011;29175;51.030;4.606;2023-02-24T05:02:44;29.77;;;5.93;;
43580;SDS011;29175;51.030;4.606;2023-02-24T05:05:14;23.58;;;5.22;;
43580;SDS011;29175;51.030;4.606;2023-02-24T05:07:41;20.75;;;5.55;;
43580;SDS011;29175;51.030;4.606;2023-02-24T05:12:37;20.60;;;6.00;;
43580;SDS011;29175;51.030;4.606;2023-02-24T05:15:04;21.33;;;5.22;;
43580;SDS011;29175;51.030;4.606;2023-02-24T05:17:32;21.80;;;5.80;;
43580;SDS011;29175;51.030;4.606;2023-02-24T05:19:59;20.08;;;6.50;;
43580;SDS011;29175;51.030;4.606;2023-02-24T05:22:43;24.92;;;5.43;;
43580;SDS011;29175;51.030;4.606;2023-02-24T05:25:16;25.10;;;5.70;;
43580;SDS011;29175;51.030;4.606;2023-02-24T05:27:42;23.10;;;5.70;;
43580;SDS011;29175;51.030;4.606;2023-02-24T05:30:09;33.95;;;6.38;;
43580;SDS011;29175;51.030;4.606;2023-02-24T05:32:35;30.95;;;5.18;;
43580;SDS011;29175;51.030;4.606;2023-02-24T05:35:02;20.13;;;5.40;;
43580;SDS011;29175;51.030;4.606;2023-02-24T05:37:29;29.90;;;5.90;;
43580;SDS011;29175;51.030;4.606;2023-02-24T05:39:58;29.42;;;6.63;;
43580;SDS011;29175;51.030;4.606;2023-02-24T05:42:27;30.15;;;6.43;;
43580;SDS011;29175;51.030;4.606;2023-02-24T05:44:59;20.33;;;5.40;;
43580;SDS011;29175;51.030;4.606;2023-02-24T05:47:25;21.50;;;5.82;;
43580;SDS011;29175;51.030;4.606;2023-02-24T05:49:52;19.42;;;5.43;;
43580;SDS011;29175;51.030;4.606;2023-02-24T05:52:20;28.63;;;6.45;;
43580;SDS011;29175;51.030;4.606;2023-02-24T05:54:47;26.40;;;6.38;;
43580;SDS011;29175;51.030;4.606;2023-02-24T05:57:17;20.35;;;4.88;;
43580;SDS011;29175;51.030;4.606;2023-02-24T05:59:46;28.83;;;5.40;;
43580;SDS011;29175;51.030;4.606;2023-02-24T06:02:16;25.92;;;5.65;;
43580;SDS011;29175;51.030;4.606;2023-02-24T06:04:51;17.92;;;5.68;;
43580;SDS011;29175;51.030;4.606;2023-02-24T06:09:49;30.73;;;6.55;;
43580;SDS011;29175;51.030;4.606;2023-02-24T06:12:21;33.88;;;6.93;;
43580;SDS011;29175;51.030;4.606;2023-02-24T06:14:49;16.87;;;4.67;;
43580;SDS011;29175;51.030;4.606;2023-02-24T06:17:17;35.33;;;7.47;;
43580;SDS011;29175;51.030;4.606;2023-02-24T06:19:44;34.85;;;7.95;;
43580;SDS011;29175;51.030;4.606;2023-02-24T06:22:15;32.03;;;8.32;;
43580;SDS011;29175;51.030;4.606;2023-02-24T06:24:46;23.17;;;5.75;;
43580;SDS011;29175;51.030;4.606;2023-02-24T06:27:14;22.15;;;6.50;;
43580;SDS011;29175;51.030;4.606;2023-02-24T06:29:48;17.98;;;5.75;;
43580;SDS011;29175;51.030;4.606;2023-02-24T06:32:18;25.85;;;6.22;;
43580;SDS011;29175;51.030;4.606;2023-02-24T06:34:46;25.25;;;6.60;;
43580;SDS011;29175;51.030;4.606;2023-02-24T06:37:12;26.85;;;6.53;;
43580;SDS011;29175;51.030;4.606;2023-02-24T06:39:39;35.47;;;7.18;;
43580;SDS011;29175;51.030;4.606;2023-02-24T06:42:05;25.42;;;6.22;;
43580;SDS011;29175;51.030;4.606;2023-02-24T06:44:33;33.80;;;7.47;;
43580;SDS011;29175;51.030;4.606;2023-02-24T06:47:01;30.67;;;8.82;;
43580;SDS011;29175;51.030;4.606;2023-02-24T06:49:27;37.83;;;8.35;;
43580;SDS011;29175;51.030;4.606;2023-02-24T06:51:54;32.50;;;8.05;;
43580;SDS011;29175;51.030;4.606;2023-02-24T06:54:21;35.20;;;10.25;;
43580;SDS011;29175;51.030;4.606;2023-02-24T06:56:49;40.67;;;10.43;;
43580;SDS011;29175;51.030;4.606;2023-02-24T06:59:15;25.20;;;9.23;;
43580;SDS011;29175;51.030;4.606;2023-02-24T07:01:46;35.33;;;9.50;;
43580;SDS011;29175;51.030;4.606;2023-02-24T07:04:13;29.17;;;9.18;;
43580;SDS011;29175;51.030;4.606;2023-02-24T07:06:40;34.55;;;9.68;;
43580;SDS011;29175;51.030;4.606;2023-02-24T07:09:08;36.85;;;9.85;;
43580;SDS011;29175;51.030;4.606;2023-02-24T07:14:05;34.63;;;9.27;;
43580;SDS011;29175;51.030;4.606;2023-02-24T07:16:32;32.45;;;9.70;;
43580;SDS011;29175;51.030;4.606;2023-02-24T07:19:03;24.33;;;9.23;;
43580;SDS011;29175;51.030;4.606;2023-02-24T07:21:35;35.13;;;8.27;;
43580;SDS011;29175;51.030;4.606;2023-02-24T07:24:08;43.30;;;10.15;;
43580;SDS011;29175;51.030;4.606;2023-02-24T07:26:38;32.72;;;8.77;;
43580;SDS011;29175;51.030;4.606;2023-02-24T07:29:10;27.23;;;9.35;;
43580;SDS011;29175;51.030;4.606;2023-02-24T07:31:36;50.00;;;9.77;;
43580;SDS011;29175;51.030;4.606;2023-02-24T07:34:02;33.75;;;8.32;;
43580;SDS011;29175;51.030;4.606;2023-02-24T07:36:28;29.17;;;7.85;;
43580;SDS011;29175;51.030;4.606;2023-02-24T07:38:56;31.20;;;7.28;;
43580;SDS011;29175;51.030;4.606;2023-02-24T07:41:23;26.83;;;7.63;;
43580;SDS011;29175;51.030;4.606;2023-02-24T07:43:51;35.97;;;8.85;;
43580;SDS011;29175;51.030;4.606;2023-02-24T07:46:25;33.53;;;8.68;;
43580;SDS011;29175;51.030;4.606;2023-02-24T07:48:52;28.10;;;7.43;;
43580;SDS011;29175;51.030;4.606;2023-02-24T07:51:23;26.92;;;8.23;;
43580;SDS011;29175;51.030;4.606;2023-02-24T07:53:51;33.30;;;7.30;;
43580;SDS011;29175;51.030;4.606;2023-02-24T07:56:21;26.77;;;8.00;;
43580;SDS011;29175;51.030;4.606;2023-02-24T07:58:51;25.85;;;7.70;;
43580;SDS011;29175;51.030;4.606;2023-02-24T08:01:23;21.20;;;6.50;;
43580;SDS011;29175;51.030;4.606;2023-02-24T08:03:55;19.33;;;6.32;;
43580;SDS011;29175;51.030;4.606;2023-02-24T08:06:33;18.92;;;6.50;;
43580;SDS011;29175;51.030;4.606;2023-02-24T08:14:19;31.85;;;6.60;;
43580;SDS011;29175;51.030;4.606;2023-02-24T08:16:50;27.30;;;6.75;;
43580;SDS011;29175;51.030;4.606;2023-02-24T08:19:25;26.42;;;6.60;;
43580;SDS011;29175;51.030;4.606;2023-02-24T08:21:58;24.83;;;6.28;;
43580;SDS011;29175;51.030;4.606;2023-02-24T08:24:45;22.20;;;5.45;;
43580;SDS011;29175;51.030;4.606;2023-02-24T08:27:33;34.17;;;6.68;;
43580;SDS011;29175;51.030;4.606;2023-02-24T08:30:07;21.42;;;5.47;;
43580;SDS011;29175;51.030;4.606;2023-02-24T08:32:40;24.80;;;5.60;;
43580;SDS011;29175;51.030;4.606;2023-02-24T08:35:19;19.58;;;5.65;;
43580;SDS011;29175;51.030;4.606;2023-02-24T08:37:47;20.13;;;5.72;;
43580;SDS011;29175;51.030;4.606;2023-02-24T08:40:17;18.83;;;5.60;;
43580;SDS011;29175;51.030;4.606;2023-02-24T08:42:58;26.02;;;5.57;;
43580;SDS011;29175;51.030;4.606;2023-02-24T08:45:43;28.77;;;5.35;;
43580;SDS011;29175;51.030;4.606;2023-02-24T08:48:15;25.10;;;5.07;;
43580;SDS011;29175;51.030;4.606;2023-02-24T08:50:46;20.73;;;5.25;;
43580;SDS011;29175;51.030;4.606;2023-02-24T08:53:13;15.00;;;4.38;;
43580;SDS011;29175;51.030;4.606;2023-02-24T08:55:43;21.33;;;4.68;;
43580;SDS011;29175;51.030;4.606;2023-02-24T08:58:10;23.38;;;5.10;;
43580;SDS011;29175;51.030;4.606;2023-02-24T09:00:42;16.83;;;4.60;;
43580;SDS011;29175;51.030;4.606;2023-02-24T09:03:17;20.50;;;5.85;;
43580;SDS011;29175;51.030;4.606;2023-02-24T09:05:58;17.70;;;4.07;;
43580;SDS011;29175;51.030;4.606;2023-02-24T09:08:33;15.23;;;4.40;;
43580;SDS011;29175;51.030;4.606;2023-02-24T09:11:07;15.10;;;4.80;;
43580;SDS011;29175;51.030;4.606;2023-02-24T09:13:38;17.15;;;4.95;;
43580;SDS011;29175;51.030;4.606;2023-02-24T09:16:22;19.27;;;4.30;;
43580;SDS011;29175;51.030;4.606;2023-02-24T09:18:49;17.60;;;3.72;;
43580;SDS011;29175;51.030;4.606;2023-02-24T09:21:33;19.42;;;4.25;;
43580;SDS011;29175;51.030;4.606;2023-02-24T09:24:11;18.50;;;3.88;;
43580;SDS011;29175;51.030;4.606;2023-02-24T09:26:37;20.83;;;4.05;;
43580;SDS011;29175;51.030;4.606;2023-02-24T09:29:09;14.20;;;3.72;;
43580;SDS011;29175;51.030;4.606;2023-02-24T09:31:55;24.38;;;4.50;;
43580;SDS011;29175;51.030;4.606;2023-02-24T09:34:32;25.10;;;4.45;;
43580;SDS011;29175;51.030;4.606;2023-02-24T09:36:59;16.00;;;4.18;;
43580;SDS011;29175;51.030;4.606;2023-02-24T09:39:32;21.10;;;4.05;;
43580;SDS011;29175;51.030;4.606;2023-02-24T09:42:19;10.23;;;3.75;;
43580;SDS011;29175;51.030;4.606;2023-02-24T09:44:46;23.58;;;4.53;;
43580;SDS011;29175;51.030;4.606;2023-02-24T09:52:53;21.42;;;4.22;;
43580;SDS011;29175;51.030;4.606;2023-02-24T09:55:43;14.57;;;4.33;;
43580;SDS011;29175;51.030;4.606;2023-02-24T10:06:57;17.75;;;3.90;;
43580;SDS011;29175;51.030;4.606;2023-02-24T10:09:33;16.58;;;4.55;;
43580;SDS011;29175;51.030;4.606;2023-02-24T10:12:31;15.38;;;4.68;;
43580;SDS011;29175;51.030;4.606;2023-02-24T10:15:08;9.88;;;3.90;;
43580;SDS011;29175;51.030;4.606;2023-02-24T10:17:51;21.75;;;4.45;;
43580;SDS011;29175;51.030;4.606;2023-02-24T10:20:23;14.48;;;4.15;;
43580;SDS011;29175;51.030;4.606;2023-02-24T10:25:43;11.35;;;3.60;;
43580;SDS011;29175;51.030;4.606;2023-02-24T10:31:25;15.40;;;4.03;;
43580;SDS011;29175;51.030;4.606;2023-02-24T10:34:04;13.77;;;4.10;;
43580;SDS011;29175;51.030;4.606;2023-02-24T10:36:33;11.27;;;4.07;;
43580;SDS011;29175;51.030;4.606;2023-02-24T10:39:21;15.35;;;3.97;;
43580;SDS011;29175;51.030;4.606;2023-02-24T10:41:59;16.48;;;4.35;;
43580;SDS011;29175;51.030;4.606;2023-02-24T10:44:46;16.88;;;4.95;;
43580;SDS011;29175;51.030;4.606;2023-02-24T10:47:22;16.98;;;4.80;;
43580;SDS011;29175;51.030;4.606;2023-02-24T10:50:04;14.65;;;4.05;;
43580;SDS011;29175;51.030;4.606;2023-02-24T10:52:37;12.18;;;4.30;;
43580;SDS011;29175;51.030;4.606;2023-02-24T10:58:21;18.77;;;5.00;;
43580;SDS011;29175;51.030;4.606;2023-02-24T11:01:07;18.00;;;4.93;;
43580;SDS011;29175;51.030;4.606;2023-02-24T11:04:04;23.90;;;4.75;;
43580;SDS011;29175;51.030;4.606;2023-02-24T11:07:05;29.33;;;5.60;;
43580;SDS011;29175;51.030;4.606;2023-02-24T11:09:36;17.63;;;4.95;;
43580;SDS011;29175;51.030;4.606;2023-02-24T11:12:18;13.93;;;5.25;;
43580;SDS011;29175;51.030;4.606;2023-02-24T11:15:06;10.88;;;3.83;;
43580;SDS011;29175;51.030;4.606;2023-02-24T11:18:01;14.75;;;4.53;;
43580;SDS011;29175;51.030;4.606;2023-02-24T11:23:05;18.75;;;5.50;;
43580;SDS011;29175;51.030;4.606;2023-02-24T11:25:40;15.85;;;4.45;;
43580;SDS011;29175;51.030;4.606;2023-02-24T11:33:32;11.75;;;4.63;;
43580;SDS011;29175;51.030;4.606;2023-02-24T11:36:43;11.85;;;4.88;;
43580;SDS011;29175;51.030;4.606;2023-02-24T11:42:02;21.92;;;5.43;;
43580;SDS011;29175;51.030;4.606;2023-02-24T11:47:08;31.70;;;5.75;;
43580;SDS011;29175;51.030;4.606;2023-02-24T11:49:43;11.88;;;4.53;;
43580;SDS011;29175;51.030;4.606;2023-02-24T11:52:23;21.70;;;5.03;;
43580;SDS011;29175;51.030;4.606;2023-02-24T11:54:55;18.05;;;4.65;;
43580;SDS011;29175;51.030;4.606;2023-02-24T11:57:24;18.55;;;4.90;;
43580;SDS011;29175;51.030;4.606;2023-02-24T12:00:18;16.90;;;4.80;;
43580;SDS011;29175;51.030;4.606;2023-02-24T12:05:35;21.23;;;4.47;;
43580;SDS011;29175;51.030;4.606;2023-02-24T12:10:50;21.38;;;4.28;;
43580;SDS011;29175;51.030;4.606;2023-02-24T12:16:00;12.32;;;4.75;;
43580;SDS011;29175;51.030;4.606;2023-02-24T12:18:33;25.73;;;5.93;;
43580;SDS011;29175;51.030;4.606;2023-02-24T12:31:37;24.02;;;5.22;;
43580;SDS011;29175;51.030;4.606;2023-02-24T12:34:42;19.77;;;5.30;;
43580;SDS011;29175;51.030;4.606;2023-02-24T12:43:41;15.25;;;5.72;;
43580;SDS011;29175;51.030;4.606;2023-02-24T12:46:08;16.60;;;5.65;;
43580;SDS011;29175;51.030;4.606;2023-02-24T12:54:04;27.80;;;6.30;;
43580;SDS011;29175;51.030;4.606;2023-02-24T12:59:47;19.83;;;6.25;;
43580;SDS011;29175;51.030;4.606;2023-02-24T13:05:07;17.10;;;6.22;;
43580;SDS011;29175;51.030;4.606;2023-02-24T13:10:42;17.08;;;6.15;;
43580;SDS011;29175;51.030;4.606;2023-02-24T13:15:51;19.42;;;6.53;;
43580;SDS011;29175;51.030;4.606;2023-02-24T13:18:29;20.70;;;6.78;;
43580;SDS011;29175;51.030;4.606;2023-02-24T13:21:05;19.45;;;6.28;;
43580;SDS011;29175;51.030;4.606;2023-02-24T13:23:53;22.77;;;6.30;;
43580;SDS011;29175;51.030;4.606;2023-02-24T13:26:22;27.38;;;6.50;;
43580;SDS011;29175;51.030;4.606;2023-02-24T13:28:59;24.58;;;6.63;;
43580;SDS011;29175;51.030;4.606;2023-02-24T13:31:38;18.45;;;7.03;;
43580;SDS011;29175;51.030;4.606;2023-02-24T13:34:32;25.50;;;7.60;;
43580;SDS011;29175;51.030;4.606;2023-02-24T13:37:08;44.63;;;8.43;;
43580;SDS011;29175;51.030;4.606;2023-02-24T13:39:39;26.35;;;7.43;;
43580;SDS011;29175;51.030;4.606;2023-02-24T13:42:21;25.50;;;8.52;;
43580;SDS011;29175;51.030;4.606;2023-02-24T13:45:03;28.20;;;7.80;;
43580;SDS011;29175;51.030;4.606;2023-02-24T13:59:32;22.15;;;9.00;;
43580;SDS011;29175;51.030;4.606;2023-02-24T14:02:00;28.00;;;10.82;;
43580;SDS011;29175;51.030;4.606;2023-02-24T14:04:33;27.70;;;10.23;;
43580;SDS011;29175;51.030;4.606;2023-02-24T14:07:01;24.77;;;9.55;;
43580;SDS011;29175;51.030;4.606;2023-02-24T14:09:31;32.45;;;10.57;;
43580;SDS011;29175;51.030;4.606;2023-02-24T14:12:00;23.25;;;9.30;;
43580;SDS011;29175;51.030;4.606;2023-02-24T14:14:29;25.65;;;9.48;;
43580;SDS011;29175;51.030;4.606;2023-02-24T14:16:55;27.15;;;11.05;;
43580;SDS011;29175;51.030;4.606;2023-02-24T14:19:22;25.98;;;10.05;;
43580;SDS011;29175;51.030;4.606;2023-02-24T14:21:55;34.80;;;11.43;;
43580;SDS011;29175;51.030;4.606;2023-02-24T14:24:23;24.20;;;10.10;;
43580;SDS011;29175;51.030;4.606;2023-02-24T14:26:55;29.15;;;10.43;;
43580;SDS011;29175;51.030;4.606;2023-02-24T14:29:24;33.00;;;11.40;;
43580;SDS011;29175;51.030;4.606;2023-02-24T14:31:52;27.10;;;10.52;;
43580;SDS011;29175;51.030;4.606;2023-02-24T14:34:21;34.60;;;12.88;;
43580;SDS011;29175;51.030;4.606;2023-02-24T14:36:50;32.35;;;12.57;;
43580;SDS011;29175;51.030;4.606;2023-02-24T14:39:20;29.67;;;11.82;;
43580;SDS011;29175;51.030;4.606;2023-02-24T14:41:48;29.95;;;12.40;;
43580;SDS011;29175;51.030;4.606;2023-02-24T14:46:45;31.02;;;13.43;;
43580;SDS011;29175;51.030;4.606;2023-02-24T14:49:15;31.80;;;13.25;;
43580;SDS011;29175;51.030;4.606;2023-02-24T14:51:44;38.45;;;13.95;;
43580;SDS011;29175;51.030;4.606;2023-02-24T14:54:14;35.58;;;14.55;;
43580;SDS011;29175;51.030;4.606;2023-02-24T14:56:47;35.50;;;13.40;;
43580;SDS011;29175;51.030;4.606;2023-02-24T14:59:19;32.40;;;12.65;;
43580;SDS011;29175;51.030;4.606;2023-02-24T15:06:52;39.97;;;14.30;;
43580;SDS011;29175;51.030;4.606;2023-02-24T15:09:18;35.85;;;14.55;;
43580;SDS011;29175;51.030;4.606;2023-02-24T15:11:50;36.35;;;14.07;;
43580;SDS011;29175;51.030;4.606;2023-02-24T15:14:24;35.72;;;14.45;;
43580;SDS011;29175;51.030;4.606;2023-02-24T15:16:54;31.70;;;14.98;;
43580;SDS011;29175;51.030;4.606;2023-02-24T15:19:34;36.95;;;15.65;;
43580;SDS011;29175;51.030;4.606;2023-02-24T15:24:52;35.00;;;15.23;;
43580;SDS011;29175;51.030;4.606;2023-02-24T15:27:47;36.88;;;13.93;;
43580;SDS011;29175;51.030;4.606;2023-02-24T15:30:29;35.87;;;14.27;;
43580;SDS011;29175;51.030;4.606;2023-02-24T15:33:00;37.15;;;14.85;;
43580;SDS011;29175;51.030;4.606;2023-02-24T15:35:33;36.63;;;15.10;;
43580;SDS011;29175;51.030;4.606;2023-02-24T15:38:01;37.92;;;15.88;;
43580;SDS011;29175;51.030;4.606;2023-02-24T15:40:28;36.90;;;15.68;;
43580;SDS011;29175;51.030;4.606;2023-02-24T15:45:22;46.13;;;16.88;;
43580;SDS011;29175;51.030;4.606;2023-02-24T15:47:57;38.80;;;16.85;;
43580;SDS011;29175;51.030;4.606;2023-02-24T15:50:24;37.95;;;17.17;;
43580;SDS011;29175;51.030;4.606;2023-02-24T15:52:50;41.38;;;17.40;;
43580;SDS011;29175;51.030;4.606;2023-02-24T15:55:19;39.58;;;16.88;;
43580;SDS011;29175;51.030;4.606;2023-02-24T15:57:46;43.33;;;17.75;;
43580;SDS011;29175;51.030;4.606;2023-02-24T16:00:21;48.35;;;19.67;;
43580;SDS011;29175;51.030;4.606;2023-02-24T16:02:47;46.15;;;17.25;;
43580;SDS011;29175;51.030;4.606;2023-02-24T16:05:13;47.85;;;18.38;;
43580;SDS011;29175;51.030;4.606;2023-02-24T16:07:40;48.15;;;16.52;;
43580;SDS011;29175;51.030;4.606;2023-02-24T16:10:19;46.10;;;18.00;;
43580;SDS011;29175;51.030;4.606;2023-02-24T16:12:55;39.75;;;16.55;;
43580;SDS011;29175;51.030;4.606;2023-02-24T16:15:25;50.10;;;17.58;;
43580;SDS011;29175;51.030;4.606;2023-02-24T16:17:54;42.42;;;17.00;;
43580;SDS011;29175;51.030;4.606;2023-02-24T16:20:22;40.00;;;16.75;;
43580;SDS011;29175;51.030;4.606;2023-02-24T16:22:55;39.97;;;17.20;;
43580;SDS011;29175;51.030;4.606;2023-02-24T16:25:25;51.85;;;16.90;;
43580;SDS011;29175;51.030;4.606;2023-02-24T16:27:52;46.20;;;15.23;;
43580;SDS011;29175;51.030;4.606;2023-02-24T16:30:22;45.47;;;14.98;;
43580;SDS011;29175;51.030;4.606;2023-02-24T16:32:54;35.10;;;14.50;;
43580;SDS011;29175;51.030;4.606;2023-02-24T16:35:20;41.13;;;14.57;;
43580;SDS011;29175;51.030;4.606;2023-02-24T16:37:47;31.63;;;12.73;;
43580;SDS011;29175;51.030;4.606;2023-02-24T16:40:16;36.25;;;13.50;;
43580;SDS011;29175;51.030;4.606;2023-02-24T16:42:47;40.97;;;13.75;;
43580;SDS011;29175;51.030;4.606;2023-02-24T16:45:14;42.00;;;14.07;;
43580;SDS011;29175;51.030;4.606;2023-02-24T16:47:40;42.40;;;13.10;;
43580;SDS011;29175;51.030;4.606;2023-02-24T16:50:08;32.50;;;12.75;;
43580;SDS011;29175;51.030;4.606;2023-02-24T16:52:42;34.13;;;12.10;;
43580;SDS011;29175;51.030;4.606;2023-02-24T16:55:10;28.70;;;10.93;;
43580;SDS011;29175;51.030;4.606;2023-02-24T16:57:38;41.72;;;10.73;;
43580;SDS011;29175;51.030;4.606;2023-02-24T17:00:05;36.58;;;11.15;;
43580;SDS011;29175;51.030;4.606;2023-02-24T17:02:31;30.45;;;10.20;;
43580;SDS011;29175;51.030;4.606;2023-02-24T17:04:57;50.22;;;11.45;;
43580;SDS011;29175;51.030;4.606;2023-02-24T17:07:23;37.05;;;10.07;;
43580;SDS011;29175;51.030;4.606;2023-02-24T17:09:49;29.05;;;9.82;;
43580;SDS011;29175;51.030;4.606;2023-02-24T17:12:16;37.45;;;9.20;;
43580;SDS011;29175;51.030;4.606;2023-02-24T17:14:45;40.28;;;10.15;;
43580;SDS011;29175;51.030;4.606;2023-02-24T17:17:11;43.53;;;9.02;;
43580;SDS011;29175;51.030;4.606;2023-02-24T17:19:37;37.45;;;8.57;;
43580;SDS011;29175;51.030;4.606;2023-02-24T17:22:03;26.13;;;7.47;;
43580;SDS011;29175;51.030;4.606;2023-02-24T17:24:29;30.75;;;8.07;;
43580;SDS011;29175;51.030;4.606;2023-02-24T17:26:55;27.38;;;7.72;;
43580;SDS011;29175;51.030;4.606;2023-02-24T17:29:25;24.88;;;8.23;;
43580;SDS011;29175;51.030;4.606;2023-02-24T17:31:51;37.63;;;7.82;;
43580;SDS011;29175;51.030;4.606;2023-02-24T17:34:17;29.58;;;6.78;;
43580;SDS011;29175;51.030;4.606;2023-02-24T17:36:45;29.90;;;7.10;;
43580;SDS011;29175;51.030;4.606;2023-02-24T17:39:11;23.85;;;5.50;;
43580;SDS011;29175;51.030;4.606;2023-02-24T17:41:37;32.10;;;6.50;;
43580;SDS011;29175;51.030;4.606;2023-02-24T17:44:03;27.05;;;5.82;;
43580;SDS011;29175;51.030;4.606;2023-02-24T17:46:29;15.38;;;4.40;;